Time;durP1;ratioP1;P1;durP2;ratioP2;P2;SDS_P1;SDS_P2;PMS_P1;PMS_P2;Temp;Humidity;BMP_temperature;BMP_pressure;BME280_temperature;BME280_humidity;BME280_pressure;Samples;Min_cycle;Max_cycle;Signal;HPM_P1;HPM_P2
2023/12/01 00:00:03;;;;;;;95.23;58.80;;;5.00;52.70;;;;;;5071482;28;20185;-92
2023/12/01 00:02:28;;;;;;;95.60;57.80;;;5.00;52.70;;;;;;5068404;28;20280;-92
2023/12/01 00:04:54;;;;;;;90.73;59.20;;;5.00;52.70;;;;;;5053452;28;20201;-92
2023/12/01 00:07:20;;;;;;;95.10;58.60;;;5.00;52.80;;;;;;5071705;28;20181;-92
2023/12/01 00:09:46;;;;;;;103.40;62.13;;;5.00;52.70;;;;;;5088702;28;20266;-92
2023/12/01 00:12:12;;;;;;;106.13;59.70;;;5.00;52.60;;;;;;5071931;28;20551;-92
2023/12/01 00:14:41;;;;;;;94.10;59.17;;;5.00;52.60;;;;;;5071472;28;20645;-92
2023/12/01 00:17:07;;;;;;;105.37;60.67;;;4.90;52.60;;;;;;5072409;28;20208;-92
2023/12/01 00:19:33;;;;;;;99.13;59.00;;;4.90;52.60;;;;;;5070613;28;20254;-92
2023/12/01 00:21:59;;;;;;;95.73;59.60;;;5.00;52.60;;;;;;5073325;28;20641;-93
2023/12/01 00:24:25;;;;;;;97.17;58.13;;;5.00;52.50;;;;;;5072612;28;20208;-91
2023/12/01 00:26:50;;;;;;;96.87;60.63;;;5.00;52.40;;;;;;5069419;28;20221;-91
2023/12/01 00:29:16;;;;;;;99.27;58.67;;;5.00;52.80;;;;;;5087706;28;20173;-91
2023/12/01 00:31:42;;;;;;;100.50;60.73;;;4.90;52.20;;;;;;5074989;28;20177;-91
2023/12/01 00:34:08;;;;;;;98.93;58.87;;;4.90;52.20;;;;;;5073100;28;20169;-91
2023/12/01 00:36:33;;;;;;;98.77;59.23;;;4.90;52.10;;;;;;5061453;28;20293;-90
2023/12/01 00:39:00;;;;;;;119.20;66.73;;;4.80;52.00;;;;;;5072533;28;20208;-92
2023/12/01 00:41:25;;;;;;;113.20;66.50;;;4.80;52.20;;;;;;5074268;28;20217;-92
2023/12/01 00:43:51;;;;;;;108.57;62.67;;;4.80;52.20;;;;;;5073256;28;20672;-91
2023/12/01 00:46:17;;;;;;;100.70;61.70;;;4.70;52.10;;;;;;5086127;28;20242;-91
2023/12/01 00:48:43;;;;;;;108.20;62.83;;;4.70;52.20;;;;;;5090935;28;20546;-91
2023/12/01 00:51:19;;;;;;;106.33;65.00;;;4.70;52.20;;;;;;5074347;28;20177;-91
2023/12/01 00:53:46;;;;;;;108.50;62.57;;;4.70;52.30;;;;;;5071356;28;20200;-91
2023/12/01 00:56:12;;;;;;;91.47;56.97;;;4.70;52.20;;;;;;5087992;28;20240;-91
2023/12/01 00:58:38;;;;;;;90.10;56.53;;;4.70;52.20;;;;;;5066992;28;20177;-92
2023/12/01 01:01:05;;;;;;;93.37;55.00;;;4.70;52.40;;;;;;5063675;28;20185;-91
2023/12/01 01:03:31;;;;;;;87.10;53.63;;;4.70;52.40;;;;;;5088703;28;20577;-92
2023/12/01 01:05:57;;;;;;;87.73;51.73;;;4.70;52.50;;;;;;5090471;28;20204;-91
2023/12/01 01:08:23;;;;;;;86.00;53.63;;;4.70;52.50;;;;;;5072778;28;20177;-91
2023/12/01 01:10:49;;;;;;;84.20;54.03;;;4.70;52.50;;;;;;5074472;28;20653;-91
2023/12/01 01:13:15;;;;;;;83.93;53.50;;;4.70;52.60;;;;;;5090738;28;20179;-91
2023/12/01 01:15:40;;;;;;;85.00;52.57;;;4.70;52.80;;;;;;5067838;28;20185;-91
2023/12/01 01:18:06;;;;;;;92.40;53.57;;;4.70;52.90;;;;;;5069794;28;20173;-91
2023/12/01 01:20:32;;;;;;;91.33;55.83;;;4.80;52.80;;;;;;5070118;28;20185;-91
2023/12/01 01:22:58;;;;;;;83.13;54.00;;;4.80;52.70;;;;;;5090484;28;20176;-92
2023/12/01 01:25:24;;;;;;;87.10;54.03;;;4.90;52.80;;;;;;5072552;28;20242;-91
2023/12/01 01:27:49;;;;;;;83.53;52.67;;;4.70;52.80;;;;;;5085659;28;20189;-92
2023/12/01 01:30:16;;;;;;;89.77;55.87;;;4.80;53.00;;;;;;5088741;28;20181;-92
2023/12/01 01:32:41;;;;;;;81.37;51.47;;;4.70;52.80;;;;;;5089929;28;20213;-91
2023/12/01 01:35:07;;;;;;;82.80;52.13;;;4.80;53.00;;;;;;5089119;28;20632;-91
2023/12/01 01:37:33;;;;;;;78.33;49.37;;;4.80;53.00;;;;;;5072659;28;20209;-91
2023/12/01 01:39:59;;;;;;;87.10;53.23;;;4.90;53.00;;;;;;5073162;28;20818;-92
2023/12/01 01:42:24;;;;;;;78.50;49.80;;;4.80;53.00;;;;;;5073506;28;20188;-91
2023/12/01 01:44:50;;;;;;;83.17;51.13;;;4.80;53.10;;;;;;5072906;28;20204;-91
2023/12/01 01:47:16;;;;;;;83.97;51.93;;;4.90;53.20;;;;;;5088299;28;20181;-91
2023/12/01 01:49:42;;;;;;;82.87;52.90;;;4.80;53.00;;;;;;5073296;28;20258;-91
2023/12/01 01:52:10;;;;;;;83.67;52.30;;;4.90;53.00;;;;;;5068534;28;20228;-91
2023/12/01 01:54:37;;;;;;;75.83;49.83;;;4.90;52.90;;;;;;5069813;28;20188;-91
2023/12/01 01:57:02;;;;;;;80.17;51.67;;;5.00;53.00;;;;;;5065109;28;20621;-90
2023/12/01 01:59:28;;;;;;;80.80;51.30;;;4.90;52.90;;;;;;5086281;28;20265;-91
2023/12/01 02:01:55;;;;;;;79.20;50.33;;;4.80;52.80;;;;;;5068420;28;20169;-91
2023/12/01 02:04:20;;;;;;;78.00;49.67;;;4.80;52.90;;;;;;5067820;28;20185;-91
2023/12/01 02:06:46;;;;;;;80.43;51.07;;;4.80;52.80;;;;;;5072356;28;20181;-91
2023/12/01 02:09:19;;;;;;;81.87;50.30;;;4.90;52.80;;;;;;5088180;28;20181;-91
2023/12/01 02:11:44;;;;;;;77.63;49.43;;;4.80;52.70;;;;;;5059572;28;20174;-91
2023/12/01 02:14:11;;;;;;;79.57;50.47;;;4.80;52.60;;;;;;5065031;28;20173;-91
2023/12/01 02:16:45;;;;;;;80.00;50.97;;;4.90;52.60;;;;;;5084578;28;20237;-90
2023/12/01 02:19:12;;;;;;;81.53;49.33;;;4.70;52.30;;;;;;5067074;28;20184;-91
2023/12/01 02:21:42;;;;;;;76.57;50.57;;;4.70;52.30;;;;;;5067198;28;20185;-92
2023/12/01 02:24:09;;;;;;;74.07;49.90;;;4.80;52.30;;;;;;5072283;28;20173;-91
2023/12/01 02:26:34;;;;;;;77.53;49.73;;;4.80;52.20;;;;;;5088267;28;20189;-91
2023/12/01 02:29:03;;;;;;;74.60;48.97;;;4.70;52.20;;;;;;5082941;28;20544;-92
2023/12/01 02:31:29;;;;;;;80.97;50.40;;;4.60;52.00;;;;;;5069671;28;20707;-91
2023/12/01 02:33:55;;;;;;;79.83;50.43;;;4.60;51.90;;;;;;5071771;28;20187;-90
2023/12/01 02:36:21;;;;;;;82.70;51.00;;;4.70;51.90;;;;;;5070132;28;20216;-90
2023/12/01 02:38:47;;;;;;;77.40;49.50;;;4.60;51.80;;;;;;5069380;28;20567;-92
2023/12/01 02:41:15;;;;;;;82.53;50.40;;;4.50;51.70;;;;;;5088652;28;20575;-92
2023/12/01 02:43:41;;;;;;;78.50;50.00;;;4.50;51.80;;;;;;5082684;28;20212;-93
2023/12/01 02:46:07;;;;;;;78.93;48.53;;;4.50;51.70;;;;;;5072152;28;20207;-93
2023/12/01 02:48:32;;;;;;;73.77;48.23;;;4.50;51.60;;;;;;5068315;28;20918;-92
2023/12/01 02:50:58;;;;;;;73.83;48.80;;;4.50;51.60;;;;;;5067095;28;20181;-92
2023/12/01 02:53:24;;;;;;;76.93;49.13;;;4.50;51.50;;;;;;5084174;28;20212;-92
2023/12/01 02:55:50;;;;;;;79.20;49.30;;;4.40;51.40;;;;;;5086304;28;20227;-92
2023/12/01 02:58:15;;;;;;;75.90;47.90;;;4.40;51.50;;;;;;5066257;28;20189;-92
2023/12/01 03:00:44;;;;;;;77.13;50.33;;;4.30;51.30;;;;;;5066074;28;20688;-92
2023/12/01 03:03:10;;;;;;;76.33;48.03;;;4.30;51.30;;;;;;5056451;28;20205;-92
2023/12/01 03:05:36;;;;;;;76.30;49.30;;;4.30;51.30;;;;;;5067003;28;20177;-92
2023/12/01 03:08:01;;;;;;;77.37;48.63;;;4.20;51.00;;;;;;5086849;28;20272;-91
2023/12/01 03:10:27;;;;;;;76.53;49.40;;;4.20;51.50;;;;;;5063210;28;20763;-92
2023/12/01 03:12:53;;;;;;;77.63;49.93;;;4.20;50.90;;;;;;5068270;28;20181;-92
2023/12/01 03:15:21;;;;;;;76.87;48.03;;;4.20;50.90;;;;;;5088547;28;20554;-92
2023/12/01 03:17:48;;;;;;;73.90;47.87;;;4.20;51.30;;;;;;5060752;28;20209;-92
2023/12/01 03:20:15;;;;;;;77.97;48.50;;;4.10;50.70;;;;;;5070533;28;20180;-92
2023/12/01 03:22:43;;;;;;;79.67;49.27;;;4.10;50.70;;;;;;5071689;28;20698;-93
2023/12/01 03:25:11;;;;;;;74.03;47.60;;;4.00;50.60;;;;;;5063612;28;20212;-92
2023/12/01 03:27:42;;;;;;;76.87;48.13;;;4.00;50.50;;;;;;5066165;28;20667;-92
2023/12/01 03:30:16;;;;;;;76.70;47.73;;;4.00;50.50;;;;;;5068462;28;20189;-93
2023/12/01 03:32:48;;;;;;;81.63;49.17;;;3.90;50.60;;;;;;5061096;28;20180;-92
2023/12/01 03:35:16;;;;;;;74.87;47.43;;;3.90;50.60;;;;;;5089256;28;20641;-92
2023/12/01 03:37:43;;;;;;;75.70;48.77;;;3.90;50.50;;;;;;5063559;28;20214;-92
2023/12/01 03:40:12;;;;;;;78.20;48.90;;;3.90;50.40;;;;;;5061679;28;20196;-92
2023/12/01 03:42:43;;;;;;;80.37;48.13;;;3.90;50.40;;;;;;5061413;28;20189;-92
2023/12/01 03:45:12;;;;;;;74.80;47.53;;;3.80;50.30;;;;;;5069931;28;20184;-90
2023/12/01 03:47:44;;;;;;;75.97;49.27;;;3.80;50.20;;;;;;5090016;28;20227;-91
2023/12/01 03:50:14;;;;;;;76.10;47.43;;;3.80;50.20;;;;;;5076086;28;20180;-92
2023/12/01 03:52:41;;;;;;;76.40;47.67;;;3.80;50.30;;;;;;5073771;28;20196;-91
2023/12/01 03:55:07;;;;;;;74.73;45.87;;;3.70;50.10;;;;;;5075516;28;20229;-91
2023/12/01 03:57:33;;;;;;;81.07;47.87;;;3.70;50.00;;;;;;5081368;28;20299;-92
2023/12/01 03:59:58;;;;;;;80.77;49.10;;;3.70;49.90;;;;;;5081273;28;20218;-92
2023/12/01 04:02:24;;;;;;;83.43;50.07;;;3.70;49.90;;;;;;5080763;28;20177;-92
2023/12/01 04:04:50;;;;;;;83.27;49.03;;;3.60;49.90;;;;;;5082799;28;20207;-94
2023/12/01 04:07:15;;;;;;;81.70;50.47;;;3.70;50.00;;;;;;5077599;28;20181;-92
2023/12/01 04:09:41;;;;;;;79.97;48.47;;;3.70;50.00;;;;;;5091689;28;20959;-92
2023/12/01 04:12:07;;;;;;;75.70;47.27;;;3.60;49.90;;;;;;5087524;28;20180;-92
2023/12/01 04:14:33;;;;;;;83.90;48.90;;;3.60;49.90;;;;;;5072746;28;20637;-91
2023/12/01 04:17:08;;;;;;;80.23;49.10;;;3.60;49.90;;;;;;5066605;28;20319;-91
2023/12/01 04:19:35;;;;;;;80.30;49.77;;;3.60;50.00;;;;;;5074515;28;20188;-92
2023/12/01 04:22:02;;;;;;;81.87;49.30;;;3.50;49.90;;;;;;5070653;28;20199;-90
2023/12/01 04:24:28;;;;;;;84.53;50.17;;;3.60;50.00;;;;;;5070528;28;20185;-90
2023/12/01 04:26:54;;;;;;;81.70;49.87;;;3.60;50.10;;;;;;5070777;28;20281;-90
2023/12/01 04:29:20;;;;;;;88.43;51.50;;;3.60;50.30;;;;;;5074217;28;20203;-90
2023/12/01 04:31:45;;;;;;;86.90;53.00;;;3.50;50.40;;;;;;5074554;28;20183;-90
2023/12/01 04:34:11;;;;;;;91.97;52.37;;;3.60;50.70;;;;;;5088682;28;20176;-90
2023/12/01 04:36:37;;;;;;;83.43;52.17;;;3.60;51.40;;;;;;5087869;28;20214;-90
2023/12/01 04:39:04;;;;;;;91.80;52.77;;;3.60;50.90;;;;;;5068434;28;20741;-89
2023/12/01 04:41:29;;;;;;;91.70;55.00;;;3.70;51.10;;;;;;5090484;28;20845;-91
2023/12/01 04:43:55;;;;;;;93.53;56.03;;;3.70;51.10;;;;;;5074181;28;20185;-90
2023/12/01 04:46:21;;;;;;;100.20;57.90;;;3.60;51.10;;;;;;5073750;28;20191;-90
2023/12/01 04:48:46;;;;;;;95.50;57.77;;;3.60;51.20;;;;;;5074517;28;20181;-90
2023/12/01 04:51:12;;;;;;;90.70;55.03;;;3.60;51.40;;;;;;5089289;28;20188;-90
2023/12/01 04:53:37;;;;;;;94.13;56.47;;;3.70;52.10;;;;;;5088999;28;20178;-90
2023/12/01 04:56:03;;;;;;;96.00;57.40;;;3.60;51.50;;;;;;5080189;28;20216;-90
2023/12/01 04:58:29;;;;;;;94.47;55.63;;;3.60;51.40;;;;;;5073114;28;20196;-90
2023/12/01 05:00:55;;;;;;;95.00;56.23;;;3.60;51.40;;;;;;5071737;28;20189;-90
2023/12/01 05:03:20;;;;;;;93.10;54.23;;;3.60;51.50;;;;;;5071743;28;20177;-90
2023/12/01 05:05:46;;;;;;;96.70;55.97;;;3.70;51.70;;;;;;5074650;28;20219;-90
2023/12/01 05:08:12;;;;;;;98.13;57.13;;;3.70;51.70;;;;;;5091311;28;20204;-90
2023/12/01 05:10:38;;;;;;;99.17;55.53;;;3.60;51.70;;;;;;5089522;28;20177;-90
2023/12/01 05:13:06;;;;;;;106.73;55.70;;;3.60;52.30;;;;;;5073431;28;20191;-91
2023/12/01 05:15:33;;;;;;;102.67;58.77;;;3.60;51.90;;;;;;5072829;28;20184;-90
2023/12/01 05:18:01;;;;;;;103.27;56.20;;;3.60;51.80;;;;;;5090233;28;20326;-90
2023/12/01 05:20:28;;;;;;;105.93;57.87;;;3.60;51.90;;;;;;5089473;28;20181;-90
2023/12/01 05:22:59;;;;;;;117.10;60.27;;;3.70;52.00;;;;;;5082698;28;20180;-90
2023/12/01 05:25:26;;;;;;;102.10;58.13;;;3.70;52.00;;;;;;5073712;28;20191;-90
2023/12/01 05:27:56;;;;;;;104.63;56.50;;;3.70;52.00;;;;;;5073177;28;20184;-90
2023/12/01 05:30:29;;;;;;;115.63;59.70;;;3.70;52.10;;;;;;5072358;28;20914;-90
2023/12/01 05:32:58;;;;;;;105.33;55.80;;;3.70;52.10;;;;;;5083566;28;20203;-90
2023/12/01 05:35:24;;;;;;;96.47;53.90;;;3.70;52.20;;;;;;5088636;28;20177;-90
2023/12/01 05:37:51;;;;;;;99.73;52.80;;;3.60;52.00;;;;;;5064023;28;20267;-90
2023/12/01 05:40:28;;;;;;;101.90;52.43;;;3.70;52.20;;;;;;5064908;28;20201;-90
2023/12/01 05:42:56;;;;;;;101.17;54.07;;;3.60;52.20;;;;;;5069915;28;20186;-90
2023/12/01 05:45:24;;;;;;;103.83;54.77;;;3.60;52.20;;;;;;5088718;28;21021;-90
2023/12/01 05:47:52;;;;;;;106.53;55.20;;;3.60;52.20;;;;;;5084338;28;20185;-89
2023/12/01 05:50:20;;;;;;;97.90;54.97;;;3.60;52.00;;;;;;5087728;28;20180;-90
2023/12/01 05:52:47;;;;;;;115.50;55.60;;;3.50;52.00;;;;;;5087624;28;20207;-89
2023/12/01 05:55:17;;;;;;;114.40;55.07;;;3.50;52.10;;;;;;5072556;28;20685;-89
2023/12/01 05:57:51;;;;;;;114.57;57.03;;;3.50;52.20;;;;;;5069377;28;20217;-90
2023/12/01 06:00:21;;;;;;;101.20;57.30;;;3.50;52.20;;;;;;5085106;28;20185;-89
2023/12/01 06:02:49;;;;;;;97.10;54.03;;;3.60;52.20;;;;;;5071287;28;20180;-89
2023/12/01 06:05:15;;;;;;;85.37;51.03;;;3.70;52.40;;;;;;5060880;28;20663;-89
2023/12/01 06:07:43;;;;;;;87.03;50.90;;;3.60;52.40;;;;;;5056948;28;20192;-90
2023/12/01 06:10:12;;;;;;;89.57;50.10;;;3.60;52.40;;;;;;5062914;28;20188;-89
2023/12/01 06:12:39;;;;;;;78.93;46.47;;;3.60;52.20;;;;;;5058562;28;20181;-88
2023/12/01 06:15:07;;;;;;;79.60;46.07;;;3.50;52.10;;;;;;5079025;28;20237;-85
2023/12/01 06:17:32;;;;;;;75.93;47.30;;;3.50;52.20;;;;;;5059110;28;20739;-85
2023/12/01 06:19:58;;;;;;;85.53;48.13;;;3.50;52.20;;;;;;5060463;28;20197;-86
2023/12/01 06:22:24;;;;;;;79.73;48.00;;;3.50;52.10;;;;;;5057855;28;20253;-89
2023/12/01 06:24:50;;;;;;;86.97;49.83;;;3.50;52.10;;;;;;5064311;28;20239;-93
2023/12/01 06:27:16;;;;;;;82.97;48.70;;;3.50;52.10;;;;;;5057313;28;20801;-89
2023/12/01 06:29:44;;;;;;;86.97;49.67;;;3.50;52.10;;;;;;5057689;28;20199;-88
2023/12/01 06:32:10;;;;;;;82.60;49.73;;;3.50;52.10;;;;;;5058931;28;20208;-88
2023/12/01 06:34:35;;;;;;;89.00;51.13;;;3.40;52.30;;;;;;5060116;28;20668;-87
2023/12/01 06:37:01;;;;;;;80.80;50.43;;;3.50;52.30;;;;;;5063491;28;20272;-88
2023/12/01 06:39:27;;;;;;;88.27;52.70;;;3.50;52.20;;;;;;5058770;28;20202;-87
2023/12/01 06:41:53;;;;;;;91.13;53.03;;;3.50;52.20;;;;;;5066946;28;20287;-88
2023/12/01 06:44:19;;;;;;;98.77;54.93;;;3.50;52.30;;;;;;5053400;28;20276;-88
2023/12/01 06:46:45;;;;;;;97.97;55.53;;;3.50;52.10;;;;;;5058216;28;20211;-88
2023/12/01 06:49:11;;;;;;;95.03;54.37;;;3.60;52.20;;;;;;5055536;28;20181;-87
2023/12/01 06:51:37;;;;;;;100.37;55.57;;;3.50;52.00;;;;;;5050428;28;20204;-87
2023/12/01 06:54:02;;;;;;;102.70;57.03;;;3.50;52.10;;;;;;5057549;28;20174;-88
2023/12/01 06:56:28;;;;;;;101.20;53.17;;;3.40;52.00;;;;;;5054714;28;20719;-86
2023/12/01 06:58:55;;;;;;;96.27;53.00;;;3.40;51.90;;;;;;5060409;28;20193;-87
2023/12/01 07:01:21;;;;;;;93.27;53.53;;;3.30;51.70;;;;;;5072127;28;20184;-87
2023/12/01 07:03:47;;;;;;;91.60;52.20;;;3.40;51.90;;;;;;5088701;28;20185;-87
2023/12/01 07:06:13;;;;;;;93.83;53.33;;;3.30;51.90;;;;;;5070039;28;20184;-88
2023/12/01 07:08:40;;;;;;;99.07;55.50;;;3.30;51.90;;;;;;5084825;28;20177;-87
2023/12/01 07:11:06;;;;;;;93.63;54.40;;;3.20;51.90;;;;;;5066942;28;20254;-87
2023/12/01 07:13:32;;;;;;;98.07;51.83;;;3.20;51.90;;;;;;5067229;28;20183;-88
2023/12/01 07:15:58;;;;;;;81.87;49.63;;;3.20;51.90;;;;;;5083552;28;20225;-88
2023/12/01 07:18:26;;;;;;;93.03;49.17;;;3.10;52.10;;;;;;5068065;28;20183;-88
2023/12/01 07:20:51;;;;;;;87.10;47.30;;;3.00;52.10;;;;;;5084273;28;20178;-87
2023/12/01 07:23:17;;;;;;;78.80;46.20;;;3.10;52.10;;;;;;5082842;28;20183;-88
2023/12/01 07:25:47;;;;;;;82.87;45.73;;;3.00;51.90;;;;;;5067054;28;20539;-87
2023/12/01 07:28:13;;;;;;;75.83;45.53;;;3.00;51.90;;;;;;5066093;28;20197;-87
2023/12/01 07:30:41;;;;;;;83.63;42.87;;;3.00;51.90;;;;;;5070758;28;20304;-90
2023/12/01 07:33:08;;;;;;;85.43;40.27;;;3.00;51.90;;;;;;5088980;28;20176;-88
2023/12/01 07:35:34;;;;;;;73.60;41.13;;;2.90;51.60;;;;;;5086059;28;20274;-90
2023/12/01 07:38:00;;;;;;;77.70;43.80;;;2.90;51.70;;;;;;5070269;28;20251;-89
2023/12/01 07:40:27;;;;;;;90.30;44.67;;;2.80;51.70;;;;;;5071827;28;20184;-88
2023/12/01 07:42:57;;;;;;;76.17;44.03;;;2.80;51.70;;;;;;5067332;28;20240;-88
2023/12/01 07:45:23;;;;;;;82.37;44.47;;;2.80;51.60;;;;;;5071186;28;20173;-88
2023/12/01 07:47:51;;;;;;;93.67;43.77;;;2.90;51.60;;;;;;5072738;28;20238;-89
2023/12/01 07:50:17;;;;;;;97.60;44.83;;;2.80;51.40;;;;;;5066565;28;20191;-89
2023/12/01 07:52:47;;;;;;;91.20;44.77;;;2.70;51.30;;;;;;5070464;28;20210;-89
2023/12/01 07:55:13;;;;;;;98.80;46.73;;;2.70;51.30;;;;;;5069152;28;20251;-88
2023/12/01 07:57:40;;;;;;;90.60;47.07;;;2.70;51.40;;;;;;5069508;28;20676;-89
2023/12/01 08:00:16;;;;;;;94.27;46.97;;;2.60;51.20;;;;;;5088418;28;20171;-88
2023/12/01 08:02:46;;;;;;;86.13;47.10;;;2.60;51.20;;;;;;5072041;28;20265;-90
2023/12/01 08:05:15;;;;;;;79.40;42.60;;;2.70;51.30;;;;;;5067133;28;20184;-90
2023/12/01 08:07:51;;;;;;;72.17;42.03;;;2.50;51.10;;;;;;5077349;28;20191;-91
2023/12/01 08:10:20;;;;;;;71.00;38.07;;;2.50;50.90;;;;;;5063374;28;20313;-90
2023/12/01 08:12:47;;;;;;;67.20;37.63;;;2.50;51.00;;;;;;5065979;28;20275;-90
2023/12/01 08:15:13;;;;;;;60.90;33.97;;;2.30;50.60;;;;;;5082090;28;20187;-88
2023/12/01 08:17:40;;;;;;;53.97;32.47;;;2.30;50.70;;;;;;5061682;28;21307;-92
2023/12/01 08:20:06;;;;;;;63.40;35.77;;;2.30;50.80;;;;;;5057548;28;20188;-88
2023/12/01 08:22:35;;;;;;;59.70;34.20;;;2.20;50.80;;;;;;5065256;28;20222;-94
2023/12/01 08:25:01;;;;;;;59.57;36.37;;;2.20;50.80;;;;;;5082228;28;20508;-92
2023/12/01 08:27:28;;;;;;;67.03;37.63;;;2.30;51.10;;;;;;5061791;28;20265;-88
2023/12/01 08:29:54;;;;;;;67.63;38.43;;;2.20;51.00;;;;;;5075351;28;20204;-92
2023/12/01 08:32:19;;;;;;;66.27;36.57;;;2.30;51.10;;;;;;5065371;28;20546;-93
2023/12/01 08:34:45;;;;;;;60.50;35.90;;;2.30;51.10;;;;;;5062682;28;20632;-92
2023/12/01 08:37:11;;;;;;;59.93;35.23;;;2.30;51.20;;;;;;5058519;28;20574;-90
2023/12/01 08:39:37;;;;;;;63.83;37.13;;;2.40;51.20;;;;;;5058158;28;20183;-89
2023/12/01 08:42:02;;;;;;;64.63;36.53;;;2.50;51.20;;;;;;5055493;28;20188;-90
2023/12/01 08:44:28;;;;;;;61.93;36.63;;;2.40;51.20;;;;;;5062310;28;20225;-91
2023/12/01 08:46:54;;;;;;;62.23;36.07;;;2.60;51.30;;;;;;5061823;28;20199;-89
2023/12/01 08:49:20;;;;;;;61.70;36.10;;;2.50;51.20;;;;;;5063307;28;20184;-93
2023/12/01 08:51:45;;;;;;;62.03;36.00;;;2.60;51.30;;;;;;5061479;28;20411;-87
2023/12/01 08:54:11;;;;;;;70.67;35.73;;;2.60;51.20;;;;;;5076695;28;20176;-91
2023/12/01 08:56:37;;;;;;;69.50;38.17;;;2.60;51.10;;;;;;5059311;28;20759;-91
2023/12/01 08:59:02;;;;;;;69.17;38.20;;;2.50;51.00;;;;;;5074928;28;20191;-90
2023/12/01 09:01:28;;;;;;;69.10;38.80;;;2.60;51.20;;;;;;5060709;28;20249;-89
2023/12/01 09:03:54;;;;;;;59.33;35.07;;;2.70;51.10;;;;;;5056679;28;20542;-89
2023/12/01 09:06:21;;;;;;;54.90;33.10;;;2.60;50.70;;;;;;5058748;28;20199;-91
2023/12/01 09:08:47;;;;;;;52.73;31.97;;;2.60;50.50;;;;;;5057124;28;20194;-89
2023/12/01 09:11:13;;;;;;;57.17;31.93;;;2.60;50.40;;;;;;5058297;28;20182;-88
2023/12/01 09:13:40;;;;;;;61.63;34.20;;;2.60;50.40;;;;;;5053952;28;20196;-87
2023/12/01 09:16:06;;;;;;;65.73;36.73;;;2.60;50.30;;;;;;5058127;28;20194;-90
2023/12/01 09:18:32;;;;;;;58.27;34.70;;;2.60;50.30;;;;;;5070137;28;20327;-90
2023/12/01 09:20:58;;;;;;;61.33;34.23;;;2.70;50.40;;;;;;5059289;28;20336;-88
2023/12/01 09:23:27;;;;;;;60.50;35.07;;;2.50;50.40;;;;;;5056343;28;20651;-87
2023/12/01 09:25:53;;;;;;;58.50;33.23;;;2.60;50.60;;;;;;5058940;28;20199;-91
2023/12/01 09:28:19;;;;;;;58.57;34.13;;;2.60;50.60;;;;;;5073403;28;20657;-88
2023/12/01 09:30:44;;;;;;;55.93;33.80;;;2.60;50.50;;;;;;5061801;28;20193;-87
2023/12/01 09:33:10;;;;;;;57.60;34.23;;;2.60;50.60;;;;;;5063355;28;20188;-89
2023/12/01 09:35:36;;;;;;;63.87;37.77;;;2.50;50.70;;;;;;5057713;28;20192;-88
2023/12/01 09:38:01;;;;;;;52.20;31.93;;;2.70;50.90;;;;;;5059748;28;20315;-88
2023/12/01 09:40:27;;;;;;;57.87;33.07;;;2.60;50.70;;;;;;5059771;28;20246;-87
2023/12/01 09:42:53;;;;;;;60.50;32.77;;;2.60;50.50;;;;;;5053769;28;20188;-89
2023/12/01 09:45:23;;;;;;;63.73;33.63;;;2.60;50.70;;;;;;5085572;28;20176;-89
2023/12/01 09:47:57;;;;;;;62.07;33.73;;;2.50;50.90;;;;;;5065954;28;20199;-88
2023/12/01 09:50:23;;;;;;;64.13;35.03;;;2.60;50.80;;;;;;5059558;28;20208;-90
2023/12/01 09:52:52;;;;;;;61.57;35.37;;;2.60;50.90;;;;;;5058673;28;20209;-88
2023/12/01 09:55:17;;;;;;;62.00;34.47;;;2.60;50.90;;;;;;5056269;28;20228;-89
2023/12/01 09:57:43;;;;;;;61.87;35.27;;;2.60;50.90;;;;;;5074133;28;20220;-86
2023/12/01 10:00:11;;;;;;;62.67;34.87;;;2.60;50.90;;;;;;5056689;28;20709;-88
2023/12/01 10:02:38;;;;;;;54.63;34.30;;;2.60;51.00;;;;;;5060784;28;20641;-89
2023/12/01 10:05:06;;;;;;;60.60;35.13;;;2.60;51.50;;;;;;5057325;28;20212;-88
2023/12/01 10:07:32;;;;;;;59.27;33.90;;;2.60;51.00;;;;;;5056953;28;20192;-87
2023/12/01 10:09:58;;;;;;;54.83;33.00;;;2.70;50.90;;;;;;5058808;28;20182;-87
2023/12/01 10:12:24;;;;;;;57.03;33.90;;;2.60;50.70;;;;;;5068129;28;20272;-87
2023/12/01 10:14:49;;;;;;;67.60;36.73;;;2.70;51.00;;;;;;5054054;28;20222;-87
2023/12/01 10:17:23;;;;;;;60.97;32.90;;;2.70;50.80;;;;;;5054781;28;20215;-87
2023/12/01 10:19:48;;;;;;;64.93;35.83;;;2.80;50.90;;;;;;5072324;28;20228;-89
2023/12/01 10:22:19;;;;;;;72.23;38.57;;;2.70;50.80;;;;;;5058224;28;20197;-87
2023/12/01 10:24:56;;;;;;;61.63;35.33;;;2.80;51.10;;;;;;5057873;28;20592;-88
2023/12/01 10:27:22;;;;;;;66.20;35.73;;;2.80;51.10;;;;;;5056754;28;20203;-87
2023/12/01 10:29:47;;;;;;;71.43;38.27;;;2.90;51.10;;;;;;5059571;28;20184;-88
2023/12/01 10:32:14;;;;;;;72.53;40.37;;;2.80;50.80;;;;;;5061027;28;20177;-88
2023/12/01 10:34:48;;;;;;;68.67;39.07;;;2.80;50.80;;;;;;5055783;28;20542;-88
2023/12/01 10:37:15;;;;;;;68.57;37.80;;;2.80;50.80;;;;;;5058002;28;20213;-88
2023/12/01 10:39:43;;;;;;;64.10;37.73;;;2.90;51.00;;;;;;5054462;28;20195;-87
2023/12/01 10:42:10;;;;;;;67.73;37.77;;;2.80;50.80;;;;;;5061799;28;20203;-88
2023/12/01 10:44:37;;;;;;;70.50;38.83;;;2.80;50.90;;;;;;5062366;28;20188;-88
2023/12/01 10:47:03;;;;;;;75.57;38.67;;;2.80;50.90;;;;;;5057464;28;20188;-88
2023/12/01 10:49:29;;;;;;;69.83;38.47;;;2.90;51.00;;;;;;5059810;28;20197;-88
2023/12/01 10:51:56;;;;;;;68.40;37.13;;;2.80;51.10;;;;;;5054275;28;20547;-88
2023/12/01 10:54:24;;;;;;;66.47;37.50;;;2.90;51.20;;;;;;5061765;28;20197;-87
2023/12/01 10:56:56;;;;;;;62.57;36.03;;;2.90;51.10;;;;;;5055588;28;20240;-87
2023/12/01 10:59:28;;;;;;;67.27;37.80;;;2.80;51.10;;;;;;5059514;28;20684;-87
2023/12/01 11:01:57;;;;;;;65.87;36.93;;;2.90;51.10;;;;;;5055250;28;20197;-87
2023/12/01 11:04:27;;;;;;;77.53;38.20;;;2.80;50.80;;;;;;5054110;28;20184;-87
2023/12/01 11:07:30;;;;;;;64.43;38.20;;;2.90;50.90;;;;;;5058682;28;20180;-88
2023/12/01 11:10:21;;;;;;;59.03;34.43;;;2.90;50.80;;;;;;5055746;28;20941;-88
2023/12/01 11:13:06;;;;;;;58.57;32.60;;;2.80;50.70;;;;;;5054342;28;20202;-88
2023/12/01 11:15:34;;;;;;;60.33;33.83;;;2.80;50.70;;;;;;5050605;28;20275;-88
2023/12/01 11:18:00;;;;;;;58.33;34.63;;;2.90;50.70;;;;;;5071053;28;20224;-88
2023/12/01 11:20:43;;;;;;;61.60;33.60;;;2.80;50.70;;;;;;5056100;28;20180;-87
2023/12/01 11:23:12;;;;;;;67.23;36.27;;;2.90;51.20;;;;;;5063896;28;20185;-88
2023/12/01 11:25:51;;;;;;;62.73;35.77;;;2.80;50.60;;;;;;5057179;28;20235;-88
2023/12/01 11:28:25;;;;;;;60.33;35.67;;;2.80;50.70;;;;;;5058623;28;20188;-86
2023/12/01 11:31:13;;;;;;;60.33;34.33;;;2.90;50.70;;;;;;5056904;28;20622;-89
2023/12/01 11:33:58;;;;;;;59.50;35.67;;;2.80;50.50;;;;;;5056756;28;20212;-88
2023/12/01 11:36:26;;;;;;;59.93;33.80;;;2.80;50.50;;;;;;5074918;28;20323;-89
2023/12/01 11:39:14;;;;;;;67.23;38.73;;;2.90;50.80;;;;;;5057360;28;20597;-88
2023/12/01 11:41:49;;;;;;;65.90;36.90;;;2.80;50.80;;;;;;5060994;28;20192;-88
2023/12/01 11:44:29;;;;;;;65.23;37.07;;;2.80;50.70;;;;;;5071126;28;20172;-88
2023/12/01 11:46:56;;;;;;;63.67;35.50;;;2.80;50.80;;;;;;5074519;28;20187;-88
2023/12/01 11:49:38;;;;;;;56.70;33.87;;;2.90;51.00;;;;;;5079155;28;20180;-90
2023/12/01 11:52:05;;;;;;;53.40;30.97;;;2.90;51.00;;;;;;5078303;28;20176;-88
2023/12/01 11:54:36;;;;;;;57.63;33.00;;;3.00;51.00;;;;;;5058609;28;20184;-89
2023/12/01 11:57:05;;;;;;;58.97;35.07;;;3.00;50.70;;;;;;5058174;28;20236;-89
2023/12/01 11:59:31;;;;;;;68.53;41.27;;;2.90;50.40;;;;;;5055643;28;20196;-87
2023/12/01 12:01:57;;;;;;;63.97;36.53;;;2.90;50.40;;;;;;5059100;28;20199;-88
2023/12/01 12:04:23;;;;;;;61.13;35.60;;;2.90;50.50;;;;;;5056308;28;20180;-86
2023/12/01 12:06:49;;;;;;;70.77;34.47;;;2.90;50.60;;;;;;5058735;28;20684;-86
2023/12/01 12:09:19;;;;;;;64.70;37.03;;;3.00;50.60;;;;;;5061637;28;20528;-88
2023/12/01 12:11:55;;;;;;;66.40;37.57;;;2.90;50.40;;;;;;5072122;28;20184;-89
2023/12/01 12:14:22;;;;;;;67.07;37.23;;;2.90;50.50;;;;;;5056319;28;20640;-89
2023/12/01 12:16:48;;;;;;;67.67;37.87;;;2.90;50.60;;;;;;5060160;28;20226;-89
2023/12/01 12:19:14;;;;;;;60.93;36.07;;;3.00;50.80;;;;;;5061766;28;20184;-85
2023/12/01 12:21:40;;;;;;;65.13;36.97;;;3.10;50.80;;;;;;5053464;28;20192;-90
2023/12/01 12:24:06;;;;;;;61.87;34.40;;;3.10;50.80;;;;;;5061497;28;20183;-89
2023/12/01 12:26:32;;;;;;;56.43;32.87;;;3.00;50.70;;;;;;5062533;28;20203;-88
2023/12/01 12:29:02;;;;;;;63.37;37.53;;;3.00;50.90;;;;;;5058997;28;20207;-90
2023/12/01 12:31:31;;;;;;;68.27;38.77;;;3.00;50.90;;;;;;5059398;28;20184;-93
2023/12/01 12:33:58;;;;;;;66.97;37.43;;;3.00;51.10;;;;;;5062413;28;20203;-89
2023/12/01 12:36:29;;;;;;;63.50;37.33;;;3.00;51.00;;;;;;5057869;28;20185;-93